Time,TemperatureF,DewpointF,PressureIn,WindDirection,WindDirectionDegrees,WindSpeedMPH,WindSpeedGustMPH,Humidity,HourlyPrecipIn,Conditions,Clouds,dailyrainin,SolarRadiationWatts/m^2,SoftwareType,DateUTC
2013-02-18 00:11:00,54.0,29.0,-100.00,SSE,150,3.0,7.0,38,0.00,,,0.00,0.000000,,2013-02-18 08:11:00,
2013-02-18 00:21:00,54.0,29.0,-100.00,SSE,150,3.0,7.0,38,0.00,,,0.00,0.000000,,2013-02-18 08:21:00,
2013-02-18 00:32:00,54.0,29.0,-100.00,SSE,150,3.0,7.0,38,0.00,,,0.00,0.000000,,2013-02-18 08:32:00,
2013-02-18 00:41:00,54.0,29.0,-100.00,SSE,150,3.0,7.0,38,0.00,,,0.00,0.000000,,2013-02-18 08:41:00,
2013-02-18 01:11:00,53.0,27.0,-100.00,South,181,4.0,7.0,37,0.00,,,0.00,0.000000,,2013-02-18 09:11:00,
2013-02-18 01:22:00,53.0,27.0,-100.00,South,181,4.0,7.0,37,0.00,,,0.00,0.000000,,2013-02-18 09:22:00,
2013-02-18 01:31:00,53.0,27.0,-100.00,South,181,4.0,7.0,37,0.00,,,0.00,0.000000,,2013-02-18 09:31:00,
2013-02-18 01:41:00,53.0,27.0,-100.00,South,181,4.0,7.0,37,0.00,,,0.00,0.000000,,2013-02-18 09:41:00,
2013-02-18 02:11:00,49.0,27.0,-100.00,SSW,198,3.0,6.0,42,0.00,,,0.00,0.000000,,2013-02-18 10:11:00,
2013-02-18 02:21:00,49.0,27.0,-100.00,SSW,198,3.0,6.0,42,0.00,,,0.00,0.000000,,2013-02-18 10:21:00,
2013-02-18 02:31:00,49.0,27.0,-100.00,SSW,198,3.0,6.0,42,0.00,,,0.00,0.000000,,2013-02-18 10:31:00,
2013-02-18 02:41:00,49.0,27.0,-100.00,SSW,198,3.0,6.0,42,0.00,,,0.00,0.000000,,2013-02-18 10:41:00,
2013-02-18 03:11:00,47.0,27.0,-100.00,SSW,212,5.0,7.0,45,0.00,,,0.00,0.000000,,2013-02-18 11:11:00,
2013-02-18 03:21:00,47.0,27.0,-100.00,SSW,212,5.0,7.0,45,0.00,,,0.00,0.000000,,2013-02-18 11:21:00,
2013-02-18 03:32:00,47.0,27.0,-100.00,SSW,212,5.0,7.0,45,0.00,,,0.00,0.000000,,2013-02-18 11:32:00,
2013-02-18 03:42:00,47.0,27.0,-100.00,SSW,212,5.0,7.0,45,0.00,,,0.00,0.000000,,2013-02-18 11:42:00,
2013-02-18 04:11:00,42.0,26.0,-100.00,North,9,4.0,6.0,53,0.00,,,0.00,0.000000,,2013-02-18 12:11:00,
2013-02-18 04:22:00,42.0,26.0,-100.00,North,9,4.0,6.0,53,0.00,,,0.00,0.000000,,2013-02-18 12:22:00,
2013-02-18 04:32:00,42.0,26.0,-100.00,North,9,4.0,6.0,53,0.00,,,0.00,0.000000,,2013-02-18 12:32:00,
2013-02-18 05:12:00,38.0,25.0,-100.00,NNE,21,3.0,5.0,59,0.00,,,0.00,0.000000,,2013-02-18 13:12:00,
2013-02-18 05:22:00,38.0,25.0,-100.00,NNE,21,3.0,5.0,59,0.00,,,0.00,0.000000,,2013-02-18 13:22:00,
2013-02-18 06:11:00,34.0,27.0,-100.00,WNW,286,3.0,4.0,74,-99.99,,,0.00,0.000000,,2013-02-18 14:11:00,
2013-02-18 06:22:00,34.0,27.0,-100.00,WNW,286,3.0,4.0,74,-99.99,,,0.00,0.000000,,2013-02-18 14:22:00,
2013-02-18 07:11:00,36.0,28.0,-100.00,ENE,62,2.0,4.0,73,-99.99,,,0.00,17.000000,,2013-02-18 15:11:00,
2013-02-18 07:22:00,36.0,28.0,-100.00,ENE,62,2.0,4.0,73,-99.99,,,0.00,17.000000,,2013-02-18 15:22:00,
2013-02-18 08:12:00,49.0,32.0,-100.00,NNE,17,3.0,4.0,51,-99.99,,,0.00,210.000000,,2013-02-18 16:12:00,
2013-02-18 08:22:00,49.0,32.0,-100.00,NNE,17,3.0,4.0,51,-99.99,,,0.00,210.000000,,2013-02-18 16:22:00,
2013-02-18 08:32:00,49.0,32.0,-100.00,NNE,17,3.0,4.0,51,-99.99,,,0.00,210.000000,,2013-02-18 16:32:00,
2013-02-18 08:42:00,49.0,32.0,-100.00,NNE,17,3.0,4.0,51,-99.99,,,0.00,210.000000,,2013-02-18 16:42:00,
2013-02-18 09:12:00,56.0,31.0,-100.00,NNW,348,4.0,6.0,38,0.00,,,0.00,449.000000,,2013-02-18 17:12:00,
2013-02-18 09:22:00,56.0,31.0,-100.00,NNW,348,4.0,6.0,38,0.00,,,0.00,449.000000,,2013-02-18 17:22:00,
2013-02-18 09:32:00,56.0,31.0,-100.00,NNW,348,4.0,6.0,38,0.00,,,0.00,449.000000,,2013-02-18 17:32:00,
2013-02-18 09:42:00,56.0,31.0,-100.00,NNW,348,4.0,6.0,38,0.00,,,0.00,449.000000,,2013-02-18 17:42:00,
2013-02-18 10:11:00,62.0,33.0,-100.00,NNW,345,6.0,8.0,33,0.00,,,-99.99,656.000000,,2013-02-18 18:11:00,
2013-02-18 10:22:00,62.0,33.0,-100.00,NNW,345,6.0,8.0,33,0.00,,,-99.99,656.000000,,2013-02-18 18:22:00,
2013-02-18 10:32:00,62.0,33.0,-100.00,NNW,345,6.0,8.0,33,0.00,,,-99.99,656.000000,,2013-02-18 18:32:00,
2013-02-18 10:42:00,62.0,33.0,-100.00,NNW,345,6.0,8.0,33,0.00,,,-99.99,656.000000,,2013-02-18 18:42:00,
2013-02-18 11:12:00,67.0,30.0,-100.00,North,3,6.0,10.0,25,0.00,,,0.00,805.000000,,2013-02-18 19:12:00,
2013-02-18 11:22:00,67.0,30.0,-100.00,North,3,6.0,10.0,25,0.00,,,0.00,805.000000,,2013-02-18 19:22:00,
2013-02-18 11:32:00,67.0,30.0,-100.00,North,3,6.0,10.0,25,0.00,,,0.00,805.000000,,2013-02-18 19:32:00,
2013-02-18 11:42:00,67.0,30.0,-100.00,North,3,6.0,10.0,25,0.00,,,0.00,805.000000,,2013-02-18 19:42:00,
2013-02-18 12:12:00,71.0,29.0,-100.00,North,7,8.0,14.0,21,0.00,,,0.00,885.000000,,2013-02-18 20:12:00,
2013-02-18 12:22:00,71.0,29.0,-100.00,North,7,8.0,14.0,21,0.00,,,0.00,885.000000,,2013-02-18 20:22:00,
2013-02-18 12:32:00,71.0,29.0,-100.00,North,7,8.0,14.0,21,0.00,,,0.00,885.000000,,2013-02-18 20:32:00,
2013-02-18 12:41:00,71.0,29.0,-100.00,North,7,8.0,14.0,21,0.00,,,0.00,885.000000,,2013-02-18 20:41:00,
2013-02-18 13:12:00,73.0,30.0,-100.00,North,354,6.0,14.0,20,0.00,,,0.00,882.000000,,2013-02-18 21:12:00,
2013-02-18 13:21:00,73.0,30.0,-100.00,North,354,6.0,14.0,20,0.00,,,0.00,882.000000,,2013-02-18 21:21:00,
2013-02-18 13:32:00,73.0,30.0,-100.00,North,354,6.0,14.0,20,0.00,,,0.00,882.000000,,2013-02-18 21:32:00,
2013-02-18 13:42:00,73.0,30.0,-100.00,North,354,6.0,14.0,20,0.00,,,0.00,882.000000,,2013-02-18 21:42:00,
2013-02-18 14:12:00,75.0,29.0,-100.00,NW,326,4.0,10.0,18,0.00,,,0.00,776.000000,,2013-02-18 22:12:00,
2013-02-18 14:22:00,75.0,29.0,-100.00,NW,326,4.0,10.0,18,0.00,,,0.00,776.000000,,2013-02-18 22:22:00,
2013-02-18 14:32:00,75.0,29.0,-100.00,NW,326,4.0,10.0,18,0.00,,,0.00,776.000000,,2013-02-18 22:32:00,
2013-02-18 14:42:00,75.0,29.0,-100.00,NW,326,4.0,10.0,18,0.00,,,0.00,776.000000,,2013-02-18 22:42:00,
2013-02-18 15:12:00,78.0,28.0,-100.00,South,177,4.0,8.0,16,0.00,,,0.00,680.000000,,2013-02-18 23:12:00,
2013-02-18 15:22:00,78.0,28.0,-100.00,South,177,4.0,8.0,16,0.00,,,0.00,680.000000,,2013-02-18 23:22:00,
2013-02-18 15:32:00,78.0,28.0,-100.00,South,177,4.0,8.0,16,0.00,,,0.00,680.000000,,2013-02-18 23:32:00,
2013-02-18 15:42:00,78.0,28.0,-100.00,South,177,4.0,8.0,16,0.00,,,0.00,680.000000,,2013-02-18 23:42:00,
2013-02-18 16:12:00,78.0,23.0,-100.00,SW,224,4.0,7.0,13,0.00,,,0.00,483.000000,,2013-02-19 00:12:00,
2013-02-18 16:22:00,78.0,23.0,-100.00,SW,224,4.0,7.0,13,0.00,,,0.00,483.000000,,2013-02-19 00:22:00,
2013-02-18 16:33:00,78.0,23.0,-100.00,SW,224,4.0,7.0,13,0.00,,,0.00,483.000000,,2013-02-19 00:33:00,
2013-02-18 16:42:00,78.0,23.0,-100.00,SW,224,4.0,7.0,13,0.00,,,0.00,483.000000,,2013-02-19 00:42:00,
2013-02-18 17:13:00,75.0,23.0,-100.00,South,174,5.0,9.0,14,0.00,,,0.00,229.000000,,2013-02-19 01:13:00,
2013-02-18 17:23:00,75.0,23.0,-100.00,South,174,5.0,9.0,14,0.00,,,0.00,229.000000,,2013-02-19 01:23:00,
2013-02-18 17:33:00,75.0,23.0,-100.00,South,174,5.0,9.0,14,0.00,,,0.00,229.000000,,2013-02-19 01:33:00,
2013-02-18 17:42:00,75.0,23.0,-100.00,South,174,5.0,9.0,14,0.00,,,0.00,229.000000,,2013-02-19 01:42:00,
2013-02-18 18:13:00,67.0,31.0,-100.00,NNE,18,3.0,6.0,26,0.00,,,0.00,23.000000,,2013-02-19 02:13:00,
2013-02-18 18:22:00,67.0,31.0,-100.00,NNE,18,3.0,6.0,26,0.00,,,0.00,23.000000,,2013-02-19 02:22:00,
2013-02-18 18:33:00,67.0,31.0,-100.00,NNE,18,3.0,6.0,26,0.00,,,0.00,23.000000,,2013-02-19 02:33:00,
2013-02-18 18:42:00,67.0,31.0,-100.00,NNE,18,3.0,6.0,26,0.00,,,0.00,23.000000,,2013-02-19 02:42:00,
2013-02-18 19:13:00,60.0,28.0,-100.00,SE,130,3.0,7.0,29,0.00,,,0.00,0.000000,,2013-02-19 03:13:00,
2013-02-18 19:22:00,60.0,28.0,-100.00,SE,130,3.0,7.0,29,0.00,,,0.00,0.000000,,2013-02-19 03:22:00,
2013-02-18 19:33:00,60.0,28.0,-100.00,SE,130,3.0,7.0,29,0.00,,,0.00,0.000000,,2013-02-19 03:33:00,
2013-02-18 19:42:00,60.0,28.0,-100.00,SE,130,3.0,7.0,29,0.00,,,0.00,0.000000,,2013-02-19 03:42:00,
2013-02-18 20:13:00,55.0,28.0,-100.00,South,178,1.0,6.0,35,0.00,,,0.00,0.000000,,2013-02-19 04:13:00,
2013-02-18 20:22:00,55.0,28.0,-100.00,South,178,1.0,6.0,35,0.00,,,0.00,0.000000,,2013-02-19 04:22:00,
2013-02-18 20:32:00,55.0,28.0,-100.00,South,178,1.0,6.0,35,0.00,,,0.00,0.000000,,2013-02-19 04:32:00,
2013-02-18 20:42:00,55.0,28.0,-100.00,South,178,1.0,6.0,35,0.00,,,0.00,0.000000,,2013-02-19 04:42:00,
2013-02-18 21:12:00,56.0,26.0,-100.00,SSE,157,3.0,6.0,31,0.00,,,0.00,0.000000,,2013-02-19 05:12:00,
2013-02-18 21:22:00,56.0,26.0,-100.00,SSE,157,3.0,6.0,31,0.00,,,0.00,0.000000,,2013-02-19 05:22:00,
2013-02-18 21:32:00,56.0,26.0,-100.00,SSE,157,3.0,6.0,31,0.00,,,0.00,0.000000,,2013-02-19 05:32:00,
2013-02-18 21:42:00,56.0,26.0,-100.00,SSE,157,3.0,6.0,31,0.00,,,0.00,0.000000,,2013-02-19 05:42:00,
2013-02-18 22:11:00,55.0,28.0,-100.00,South,180,4.0,6.0,35,0.00,,,-99.99,0.000000,,2013-02-19 06:11:00,
2013-02-18 22:21:00,55.0,28.0,-100.00,South,180,4.0,6.0,35,0.00,,,-99.99,0.000000,,2013-02-19 06:21:00,
2013-02-18 22:32:00,55.0,28.0,-100.00,South,180,4.0,6.0,35,0.00,,,-99.99,0.000000,,2013-02-19 06:32:00,
2013-02-18 22:41:00,55.0,28.0,-100.00,South,180,4.0,6.0,35,0.00,,,-99.99,0.000000,,2013-02-19 06:41:00,
2013-02-18 23:11:00,52.0,29.0,-100.00,South,175,5.0,6.0,41,0.00,,,0.00,0.000000,,2013-02-19 07:11:00,
2013-02-18 23:21:00,52.0,29.0,-100.00,South,175,5.0,6.0,41,0.00,,,0.00,0.000000,,2013-02-19 07:21:00,
2013-02-18 23:32:00,52.0,29.0,-100.00,South,175,5.0,6.0,41,0.00,,,0.00,0.000000,,2013-02-19 07:32:00,
2013-02-18 23:42:00,52.0,29.0,-100.00,South,175,5.0,6.0,41,0.00,,,0.00,0.000000,,2013-02-19 07:42:00,